createdAt,value
2022-10-01T00:00:55.758Z,12.90
2022-10-01T00:03:24.560Z,10.70
2022-10-01T00:06:14.901Z,14.05
2022-10-01T00:08:43.233Z,11.40
2022-10-01T00:11:15.387Z,11.10
2022-10-01T00:13:43.289Z,10.55
2022-10-01T00:16:16.469Z,8.20
2022-10-01T00:18:45.915Z,8.50
2022-10-01T00:21:19.542Z,8.20
2022-10-01T00:23:46.575Z,8.27
2022-10-01T00:26:17.119Z,7.88
2022-10-01T00:28:46.212Z,8.65
2022-10-01T00:31:14.915Z,7.97
2022-10-01T00:33:42.445Z,9.65
2022-10-01T00:36:11.061Z,10.10
2022-10-01T00:38:40.373Z,11.00
2022-10-01T00:41:08.642Z,15.52
2022-10-01T00:43:40.298Z,9.35
2022-10-01T00:48:47.995Z,9.80
2022-10-01T00:51:15.067Z,10.32
2022-10-01T00:53:44.045Z,11.63
2022-10-01T00:56:10.925Z,9.43
2022-10-01T00:58:38.678Z,17.58
2022-10-01T01:01:05.741Z,9.05
2022-10-01T01:03:32.526Z,12.80
2022-10-01T01:05:59.455Z,11.07
2022-10-01T01:08:26.274Z,12.10
2022-10-01T01:11:04.893Z,10.52
2022-10-01T01:14:11.117Z,10.00
2022-10-01T01:16:49.679Z,12.13
2022-10-01T01:19:22.777Z,11.55
2022-10-01T01:21:56.912Z,10.95
2022-10-01T01:24:32.670Z,10.68
2022-10-01T01:27:07.833Z,9.85
2022-10-01T01:29:54.518Z,10.35
2022-10-01T01:32:31.209Z,13.35
2022-10-01T01:35:02.479Z,10.10
2022-10-01T01:37:35.783Z,11.80
2022-10-01T01:40:05.121Z,10.52
2022-10-01T01:42:37.355Z,9.95
2022-10-01T01:45:10.009Z,11.20
2022-10-01T01:47:40.004Z,11.18
2022-10-01T01:50:08.303Z,11.35
2022-10-01T01:52:35.623Z,10.07
2022-10-01T01:55:07.527Z,12.50
2022-10-01T01:57:39.521Z,11.98
2022-10-01T02:00:06.815Z,15.82
2022-10-01T02:02:38.264Z,12.38
2022-10-01T02:07:43.586Z,12.13
2022-10-01T02:10:40.868Z,12.43
2022-10-01T02:13:35.349Z,11.75
2022-10-01T02:16:04.880Z,13.50
2022-10-01T02:18:43.390Z,12.60
2022-10-01T02:21:34.315Z,12.27
2022-10-01T02:24:05.153Z,12.10
2022-10-01T02:26:35.196Z,10.87
2022-10-01T02:29:06.974Z,11.52
2022-10-01T02:31:36.033Z,12.98
2022-10-01T02:34:09.688Z,11.48
2022-10-01T02:36:41.289Z,12.02
2022-10-01T02:39:10.662Z,11.18
2022-10-01T02:41:37.661Z,10.75
2022-10-01T02:44:10.797Z,12.05
2022-10-01T02:47:02.351Z,11.23
2022-10-01T02:49:31.217Z,13.35
2022-10-01T02:52:06.905Z,14.95
2022-10-01T02:54:33.564Z,10.02
2022-10-01T02:57:19.042Z,12.18
2022-10-01T02:59:45.851Z,9.30
2022-10-01T03:02:12.797Z,9.80
2022-10-01T03:04:39.566Z,10.13
2022-10-01T03:07:06.819Z,10.55
2022-10-01T03:09:35.073Z,11.48
2022-10-01T03:12:02.078Z,11.70
2022-10-01T03:14:29.493Z,11.00
2022-10-01T03:16:56.154Z,10.30
2022-10-01T03:19:22.920Z,13.77
2022-10-01T03:21:49.595Z,11.80
2022-10-01T03:24:16.413Z,12.20
2022-10-01T03:26:44.022Z,11.30
2022-10-01T03:29:11.456Z,11.68
2022-10-01T03:31:38.570Z,13.00
2022-10-01T03:34:05.454Z,10.73
2022-10-01T03:36:32.310Z,14.18
2022-10-01T03:38:59.339Z,14.23
2022-10-01T03:41:26.077Z,16.55
2022-10-01T03:43:55.108Z,14.25
2022-10-01T03:46:26.411Z,16.88
2022-10-01T03:48:53.140Z,12.68
2022-10-01T03:51:20.947Z,12.95
2022-10-01T03:53:48.113Z,15.57
2022-10-01T03:56:16.412Z,17.50
2022-10-01T03:58:43.066Z,16.60
2022-10-01T04:01:09.942Z,13.98
2022-10-01T04:03:36.864Z,24.98
2022-10-01T04:06:03.637Z,26.27
2022-10-01T04:08:30.449Z,28.98
2022-10-01T04:10:57.187Z,24.08
2022-10-01T04:13:23.942Z,19.30
2022-10-01T04:15:50.658Z,19.42
2022-10-01T04:18:17.554Z,17.35
2022-10-01T04:20:44.284Z,13.02
2022-10-01T04:23:10.991Z,15.32
2022-10-01T04:25:37.753Z,12.35
2022-10-01T04:28:07.003Z,18.17
2022-10-01T04:30:37.131Z,15.75
2022-10-01T04:33:05.304Z,13.27
2022-10-01T04:35:32.484Z,12.63
2022-10-01T04:38:13.576Z,15.30
2022-10-01T04:40:40.312Z,14.23
2022-10-01T04:43:10.131Z,14.45
2022-10-01T04:45:38.001Z,12.95
2022-10-01T04:48:05.493Z,10.80
2022-10-01T04:50:32.497Z,13.30
2022-10-01T04:52:59.410Z,13.32
2022-10-01T04:55:26.399Z,9.88
2022-10-01T04:57:53.174Z,9.65
2022-10-01T05:00:24.807Z,11.88
2022-10-01T05:02:54.244Z,11.73
2022-10-01T05:05:23.887Z,9.70
2022-10-01T05:07:51.004Z,11.10
2022-10-01T05:10:20.661Z,9.75
2022-10-01T05:12:49.425Z,10.70
2022-10-01T05:15:17.197Z,13.13
2022-10-01T05:17:44.636Z,13.32
2022-10-01T05:20:18.120Z,12.85
2022-10-01T05:22:45.677Z,12.35
2022-10-01T05:25:12.550Z,11.45
2022-10-01T05:27:40.520Z,12.57
2022-10-01T05:30:09.202Z,12.55
2022-10-01T05:32:37.004Z,14.20
2022-10-01T05:35:05.576Z,9.75
2022-10-01T05:37:32.275Z,8.25
2022-10-01T05:39:59.045Z,10.52
2022-10-01T05:42:26.125Z,6.63
2022-10-01T05:44:52.928Z,8.32
2022-10-01T05:47:20.824Z,9.68
2022-10-01T05:49:47.602Z,8.52
2022-10-01T05:52:16.514Z,7.45
2022-10-01T05:54:43.615Z,10.73
2022-10-01T05:57:11.011Z,8.18
2022-10-01T05:59:37.826Z,10.48
2022-10-01T06:02:05.055Z,9.13
2022-10-01T06:04:31.984Z,7.53
2022-10-01T06:06:59.114Z,7.75
2022-10-01T06:09:25.887Z,8.82
2022-10-01T06:11:52.889Z,8.75
2022-10-01T06:14:19.697Z,8.63
2022-10-01T06:16:47.209Z,6.80
2022-10-01T06:19:14.170Z,6.18
2022-10-01T06:21:40.967Z,7.68
2022-10-01T06:24:07.696Z,7.57
2022-10-01T06:26:34.600Z,6.05
2022-10-01T06:29:03.657Z,8.77
2022-10-01T06:31:30.796Z,6.93
2022-10-01T06:33:57.617Z,10.05
2022-10-01T06:36:24.465Z,6.43
2022-10-01T06:38:51.920Z,8.18
2022-10-01T06:41:18.823Z,8.52
2022-10-01T06:43:45.839Z,8.32
2022-10-01T06:46:12.628Z,7.00
2022-10-01T06:48:39.452Z,6.88
2022-10-01T06:51:06.397Z,7.57
2022-10-01T06:53:33.293Z,5.38
2022-10-01T06:56:07.648Z,7.78
2022-10-01T06:58:34.578Z,10.90
2022-10-01T07:01:04.041Z,12.95
2022-10-01T07:03:31.564Z,10.57
2022-10-01T07:06:05.316Z,8.00
2022-10-01T07:08:33.414Z,10.50
2022-10-01T07:11:03.520Z,7.25
2022-10-01T07:13:30.614Z,9.15
2022-10-01T07:15:57.585Z,7.25
2022-10-01T07:18:24.353Z,4.53
2022-10-01T07:20:51.332Z,6.40
2022-10-01T07:23:18.523Z,9.00
2022-10-01T07:25:45.822Z,11.43
2022-10-01T07:28:18.732Z,10.80
2022-10-01T07:30:48.624Z,10.00
2022-10-01T07:33:18.864Z,6.70
2022-10-01T07:35:48.064Z,6.10
2022-10-01T07:38:15.019Z,4.70
2022-10-01T07:40:42.114Z,4.55
2022-10-01T07:43:09.682Z,6.22
2022-10-01T07:45:36.557Z,5.78
2022-10-01T07:48:03.779Z,12.55
2022-10-01T07:50:30.831Z,8.52
2022-10-01T07:52:59.423Z,9.30
2022-10-01T07:55:30.937Z,9.32
2022-10-01T07:58:00.175Z,4.93
2022-10-01T08:00:28.183Z,8.63
2022-10-01T08:02:56.331Z,5.50
2022-10-01T08:05:26.020Z,12.23
2022-10-01T08:07:54.178Z,12.20
2022-10-01T08:10:23.337Z,8.73
2022-10-01T08:12:50.201Z,7.30
2022-10-01T08:15:18.254Z,6.43
2022-10-01T08:17:45.686Z,25.15
2022-10-01T08:20:14.127Z,25.50
2022-10-01T08:22:42.404Z,39.50
2022-10-01T08:25:10.334Z,15.13
2022-10-01T08:27:37.236Z,8.23
2022-10-01T08:30:05.160Z,4.97
2022-10-01T08:32:32.280Z,6.85
2022-10-01T08:35:01.331Z,3.25
2022-10-01T08:37:29.421Z,5.82
2022-10-01T08:39:57.617Z,3.75
2022-10-01T08:42:42.331Z,11.02
2022-10-01T08:45:17.719Z,9.85
2022-10-01T08:47:52.972Z,3.95
2022-10-01T08:50:42.774Z,5.38
2022-10-01T08:53:23.563Z,6.55
2022-10-01T08:55:52.100Z,2.55
2022-10-01T08:58:29.602Z,4.95
2022-10-01T09:00:57.023Z,7.80
2022-10-01T09:03:23.991Z,4.00
2022-10-01T09:06:09.018Z,3.47
2022-10-01T09:08:47.449Z,3.00
2022-10-01T09:11:24.075Z,3.58
2022-10-01T09:14:01.213Z,5.07
2022-10-01T09:16:37.748Z,3.50
2022-10-01T09:19:29.946Z,5.43
2022-10-01T09:21:59.194Z,3.20
2022-10-01T09:24:31.832Z,5.00
2022-10-01T09:26:58.752Z,2.85
2022-10-01T09:29:36.335Z,5.38
2022-10-01T09:32:06.291Z,3.63
2022-10-01T09:34:42.132Z,3.53
2022-10-01T09:37:28.805Z,3.40
2022-10-01T09:40:33.906Z,4.18
2022-10-01T09:43:01.208Z,6.65
2022-10-01T09:45:28.865Z,6.90
2022-10-01T09:48:04.148Z,4.18
2022-10-01T09:50:43.491Z,5.57
2022-10-01T09:53:20.283Z,4.28
2022-10-01T09:55:56.137Z,4.40
2022-10-01T09:58:26.841Z,5.47
2022-10-01T10:00:54.828Z,4.43
2022-10-01T10:03:28.902Z,5.43
2022-10-01T10:05:56.947Z,6.18
2022-10-01T10:08:28.610Z,3.90
2022-10-01T10:11:10.944Z,3.05
2022-10-01T10:13:41.967Z,4.40
2022-10-01T10:16:17.056Z,2.65
2022-10-01T10:18:48.872Z,3.13
2022-10-01T10:21:21.057Z,4.85
2022-10-01T10:23:54.501Z,3.65
2022-10-01T10:26:33.846Z,6.20
2022-10-01T10:29:02.894Z,3.00
2022-10-01T10:31:42.936Z,6.47
2022-10-01T10:34:23.948Z,6.15
2022-10-01T10:36:58.314Z,4.05
2022-10-01T10:39:26.382Z,5.57
2022-10-01T10:41:54.147Z,5.68
2022-10-01T10:44:24.092Z,3.15
2022-10-01T10:46:53.977Z,5.00
2022-10-01T10:49:29.765Z,5.35
2022-10-01T10:51:58.958Z,4.50
2022-10-01T10:54:31.628Z,3.65
2022-10-01T10:57:02.704Z,12.70
2022-10-01T10:59:34.866Z,2.78
2022-10-01T11:02:05.032Z,4.53
2022-10-01T11:04:40.290Z,4.60
2022-10-01T11:07:07.681Z,3.72
2022-10-01T11:10:01.019Z,5.32
2022-10-01T11:13:09.041Z,3.67
2022-10-01T11:15:53.979Z,3.30
2022-10-01T11:18:58.631Z,4.22
2022-10-01T11:21:56.822Z,5.60
2022-10-01T11:24:42.107Z,3.42
2022-10-01T11:27:36.411Z,4.75
2022-10-01T11:30:26.037Z,4.15
2022-10-01T11:33:05.252Z,4.18
2022-10-01T11:35:42.770Z,2.20
2022-10-01T11:38:24.665Z,3.17
2022-10-01T11:41:19.264Z,4.50
2022-10-01T11:44:06.333Z,5.45
2022-10-01T11:47:02.427Z,4.03
2022-10-01T11:49:55.978Z,4.07
2022-10-01T11:52:44.335Z,5.15
2022-10-01T11:55:37.711Z,3.20
2022-10-01T11:58:30.886Z,2.97
2022-10-01T12:01:16.439Z,3.10
2022-10-01T12:04:01.388Z,3.25
2022-10-01T12:06:41.524Z,4.78
2022-10-01T12:09:23.990Z,3.37
2022-10-01T12:12:02.722Z,2.92
2022-10-01T12:15:04.097Z,5.60
2022-10-01T12:17:41.398Z,4.72
2022-10-01T12:20:20.802Z,3.38
2022-10-01T12:22:48.898Z,5.47
2022-10-01T12:25:15.846Z,4.55
2022-10-01T12:27:56.164Z,5.38
2022-10-01T12:30:31.403Z,3.47
2022-10-01T12:33:31.393Z,3.90
2022-10-01T12:36:16.678Z,2.80
2022-10-01T12:38:52.247Z,7.90
2022-10-01T12:41:18.979Z,3.53
2022-10-01T12:43:51.419Z,3.67
2022-10-01T12:46:31.481Z,4.65
2022-10-01T12:49:22.433Z,3.70
2022-10-01T12:52:04.434Z,2.20
2022-10-01T12:54:43.303Z,3.00
2022-10-01T12:57:23.102Z,3.25
2022-10-01T13:00:11.282Z,4.55
2022-10-01T13:02:58.926Z,2.33
2022-10-01T13:06:01.616Z,3.53
2022-10-01T13:08:38.272Z,3.75
2022-10-01T13:11:20.748Z,2.53
2022-10-01T13:13:52.659Z,4.30
2022-10-01T13:16:33.753Z,2.03
2022-10-01T13:21:42.543Z,3.22
2022-10-01T13:24:15.009Z,2.13
2022-10-01T13:27:10.356Z,4.13
2022-10-01T13:30:03.855Z,2.65
2022-10-01T13:32:37.612Z,2.13
2022-10-01T13:35:41.291Z,4.13
2022-10-01T13:38:29.260Z,4.30
2022-10-01T13:41:01.967Z,4.35
2022-10-01T13:43:30.974Z,3.30
2022-10-01T13:46:10.574Z,3.47
2022-10-01T13:48:46.933Z,4.20
2022-10-01T13:51:14.989Z,3.38
2022-10-01T13:53:41.722Z,4.43
2022-10-01T13:56:12.366Z,3.55
2022-10-01T13:58:45.183Z,4.78
2022-10-01T14:01:24.001Z,3.55
2022-10-01T14:04:09.323Z,2.80
2022-10-01T14:06:36.454Z,3.55
2022-10-01T14:09:06.318Z,3.42
2022-10-01T14:11:54.873Z,2.55
2022-10-01T14:14:58.583Z,3.08
2022-10-01T14:17:29.893Z,4.97
2022-10-01T14:22:30.003Z,1.67
2022-10-01T14:25:31.697Z,16.90
2022-10-01T14:28:10.416Z,5.28
2022-10-01T14:31:07.639Z,3.33
2022-10-01T14:33:53.119Z,2.50
2022-10-01T14:36:42.842Z,3.67
2022-10-01T14:39:19.694Z,2.67
2022-10-01T14:41:51.687Z,3.28
2022-10-01T14:44:22.207Z,3.00
2022-10-01T14:46:54.527Z,5.68
2022-10-01T14:49:23.616Z,2.95
2022-10-01T14:51:53.260Z,2.42
2022-10-01T14:54:20.668Z,5.88
2022-10-01T14:56:48.263Z,8.02
2022-10-01T14:59:28.003Z,3.85
2022-10-01T15:01:58.534Z,4.72
2022-10-01T15:04:25.655Z,3.70
2022-10-01T15:06:52.486Z,8.75
2022-10-01T15:09:19.679Z,15.90
2022-10-01T15:11:51.336Z,8.07
2022-10-01T15:14:24.685Z,9.40
2022-10-01T15:16:52.229Z,10.75
2022-10-01T15:19:23.121Z,5.22
2022-10-01T15:21:50.237Z,6.45
2022-10-01T15:24:38.125Z,11.30
2022-10-01T15:27:06.800Z,6.53
2022-10-01T15:29:34.065Z,4.35
2022-10-01T15:32:03.531Z,5.20
2022-10-01T15:34:31.312Z,13.02
2022-10-01T15:37:02.306Z,3.47
2022-10-01T15:39:32.087Z,19.92
2022-10-01T15:42:01.828Z,2.88
2022-10-01T15:44:42.979Z,8.35
2022-10-01T16:20:49.090Z,4.70
2022-10-01T16:23:37.168Z,4.95
2022-10-01T16:26:06.395Z,4.47
2022-10-01T16:28:36.109Z,5.35
2022-10-01T16:31:04.522Z,3.78
2022-10-01T16:33:31.318Z,5.07
2022-10-01T16:36:10.943Z,4.18
2022-10-01T16:38:37.759Z,4.93
2022-10-01T16:41:05.644Z,4.57
2022-10-01T16:43:32.705Z,4.90
2022-10-01T16:45:59.556Z,6.07
2022-10-01T16:48:26.955Z,5.80
2022-10-01T16:50:54.319Z,13.40
2022-10-01T16:53:21.155Z,9.98
2022-10-01T16:55:48.270Z,11.10
2022-10-01T16:58:15.915Z,14.40
2022-10-01T17:00:43.461Z,14.07
2022-10-01T17:03:16.087Z,10.07
2022-10-01T17:05:43.777Z,11.52
2022-10-01T17:08:13.820Z,12.07
2022-10-01T17:10:45.379Z,13.52
2022-10-01T17:13:13.434Z,9.57
2022-10-01T17:15:42.234Z,11.73
2022-10-01T17:18:09.738Z,12.75
2022-10-01T17:20:40.321Z,13.57
2022-10-01T17:23:07.492Z,14.57
2022-10-01T17:25:36.937Z,11.23
2022-10-01T17:28:06.210Z,14.40
2022-10-01T17:30:33.347Z,11.75
2022-10-01T17:33:01.443Z,10.98
2022-10-01T17:35:29.890Z,11.10
2022-10-01T17:37:57.199Z,10.75
2022-10-01T17:40:24.013Z,8.98
2022-10-01T17:42:50.730Z,11.15
2022-10-01T17:45:17.669Z,12.07
2022-10-01T17:47:49.236Z,12.35
2022-10-01T17:50:17.009Z,12.82
2022-10-01T17:52:46.630Z,13.95
2022-10-01T17:55:13.705Z,15.73
2022-10-01T17:57:40.470Z,11.57
2022-10-01T18:00:08.305Z,16.38
2022-10-01T18:02:41.958Z,14.93
2022-10-01T18:05:12.430Z,14.40
2022-10-01T18:07:39.641Z,21.90
2022-10-01T18:10:08.839Z,16.05
2022-10-01T18:12:35.586Z,16.77
2022-10-01T18:15:02.356Z,13.02
2022-10-01T18:17:32.105Z,14.40
2022-10-01T18:19:59.155Z,14.73
2022-10-01T18:22:27.506Z,14.68
2022-10-01T18:24:54.707Z,15.38
2022-10-01T18:27:21.562Z,14.93
2022-10-01T18:29:48.430Z,13.75
2022-10-01T18:32:27.269Z,14.98
2022-10-01T18:35:01.671Z,14.23
2022-10-01T18:38:03.889Z,17.88
2022-10-01T18:40:36.966Z,16.50
2022-10-01T18:43:17.499Z,21.23
2022-10-01T18:45:53.827Z,19.83
2022-10-01T18:48:32.595Z,21.73
2022-10-01T18:51:26.673Z,22.20
2022-10-01T18:54:19.660Z,20.85
2022-10-01T18:57:20.922Z,23.45
2022-10-01T18:59:56.645Z,22.67
2022-10-01T19:03:04.587Z,23.58
2022-10-01T19:05:43.381Z,25.17
2022-10-01T19:08:29.185Z,24.40
2022-10-01T19:11:02.961Z,25.30
2022-10-01T19:13:48.914Z,30.90
2022-10-01T19:16:15.682Z,27.15
2022-10-01T19:19:02.153Z,25.10
2022-10-01T19:21:37.591Z,17.38
2022-10-01T19:24:20.538Z,16.88
2022-10-01T19:27:13.913Z,17.90
2022-10-01T19:29:40.663Z,24.33
2022-10-01T19:32:17.726Z,24.08
2022-10-01T19:34:56.123Z,16.45
2022-10-01T19:38:02.480Z,19.02
2022-10-01T19:40:34.113Z,15.63
2022-10-01T19:43:16.112Z,18.40
2022-10-01T19:45:50.351Z,17.15
2022-10-01T19:48:51.170Z,19.65
2022-10-01T19:51:21.343Z,19.20
2022-10-01T19:53:56.624Z,16.08
2022-10-01T19:56:28.180Z,18.42
2022-10-01T20:01:28.763Z,19.10
2022-10-01T20:04:02.816Z,15.25
2022-10-01T20:06:39.549Z,18.92
2022-10-01T20:09:23.848Z,24.33
2022-10-01T20:12:02.137Z,19.48
2022-10-01T20:15:08.708Z,18.55
2022-10-01T20:17:44.774Z,15.68
2022-10-01T20:20:33.249Z,15.65
2022-10-01T20:23:29.156Z,18.13
2022-10-01T20:26:25.843Z,17.20
2022-10-01T20:29:23.352Z,15.77
2022-10-01T20:32:27.718Z,16.95
2022-10-01T20:35:21.024Z,15.65
2022-10-01T20:37:57.376Z,15.27
2022-10-01T20:40:50.211Z,15.23
2022-10-01T20:43:26.999Z,15.30
2022-10-01T20:45:54.946Z,17.52
2022-10-01T20:48:35.397Z,15.63
2022-10-01T20:51:09.385Z,14.52
2022-10-01T20:53:48.801Z,14.85
2022-10-01T20:56:21.671Z,16.63
2022-10-01T20:59:23.673Z,17.65
2022-10-01T21:02:02.517Z,18.42
2022-10-01T21:04:37.824Z,18.73
2022-10-01T21:08:09.013Z,18.52
2022-10-01T21:10:58.016Z,17.50
2022-10-01T21:13:30.629Z,18.67
2022-10-01T21:16:54.342Z,19.77
2022-10-01T21:19:42.189Z,20.02
2022-10-01T21:22:17.901Z,29.35
2022-10-01T21:24:52.746Z,24.55
2022-10-01T21:27:37.936Z,26.10
2022-10-01T21:30:07.719Z,23.40
2022-10-01T21:33:03.919Z,22.25
2022-10-01T21:35:49.332Z,23.40
2022-10-01T21:38:39.233Z,26.50
2022-10-01T21:41:26.820Z,29.00
2022-10-01T21:44:31.383Z,23.20
2022-10-01T21:47:03.615Z,24.20
2022-10-01T21:50:10.830Z,25.17
2022-10-01T21:52:54.634Z,20.65
2022-10-01T21:55:27.189Z,24.30
2022-10-01T21:58:18.404Z,24.75
2022-10-01T22:01:00.120Z,19.67
2022-10-01T22:03:46.398Z,18.70
2022-10-01T22:06:23.091Z,18.13
2022-10-01T22:09:17.015Z,17.02
2022-10-01T22:11:50.894Z,21.30
2022-10-01T22:14:20.679Z,19.67
2022-10-01T22:16:54.487Z,18.95
2022-10-01T22:19:40.737Z,18.50
2022-10-01T22:22:14.793Z,15.55
2022-10-01T22:24:50.822Z,16.42
2022-10-01T22:27:27.594Z,15.55
2022-10-01T22:30:02.113Z,16.17
2022-10-01T22:32:42.621Z,20.25
2022-10-01T22:35:18.648Z,18.33
2022-10-01T22:38:05.674Z,16.23
2022-10-01T22:40:42.590Z,14.90
2022-10-01T22:43:13.875Z,15.25
2022-10-01T22:45:59.271Z,17.75
2022-10-01T22:48:50.179Z,15.98
2022-10-01T22:51:28.929Z,18.70
2022-10-01T22:54:18.210Z,19.40
2022-10-01T22:56:51.691Z,16.08
2022-10-01T22:59:28.103Z,15.50
2022-10-01T23:02:22.778Z,15.27
2022-10-01T23:04:59.613Z,18.70
2022-10-01T23:07:29.098Z,16.30
2022-10-01T23:10:13.519Z,14.75
2022-10-01T23:12:53.281Z,17.83
2022-10-01T23:15:52.522Z,15.75
2022-10-01T23:18:35.338Z,16.38
2022-10-01T23:21:15.605Z,15.15
2022-10-01T23:23:54.960Z,16.25
2022-10-01T23:26:36.289Z,14.57
2022-10-01T23:29:18.359Z,19.27
2022-10-01T23:31:55.721Z,16.60
2022-10-01T23:34:49.241Z,17.10
2022-10-01T23:37:43.625Z,14.75
2022-10-01T23:40:18.122Z,16.40
2022-10-01T23:42:57.048Z,15.38
2022-10-01T23:45:51.507Z,18.80
2022-10-01T23:48:24.996Z,16.33
2022-10-01T23:51:02.506Z,14.65
2022-10-01T23:54:03.938Z,17.58
2022-10-01T23:56:50.541Z,13.73
2022-10-01T23:59:43.437Z,13.82
